• Join FlightAware (Why Join?)
  • Login
  • US Flag 
12:35AM EDT


 

Airport Tracker/Info


-or-


 

Live Flight TrackerFlight Track Log ✈ DAL6067 ✈ 22-Apr-2013 ✈ KDTW - KCMH

Flight Track Log - Related Links

Times and Time Zones

All times are in EDT time to prevent confusion due to time zone crossing. See the DAL6067 flight status page for this flight to view local times or setup timezone preferences in your user account.

Time Position Orientation Groundspeed Altitude Reporting Facility
EDT Latitude Longitude Course Direction KTS MPH feet Rate Location/Type
12:18PM 42.2044 -83.3531 180° South 159 183 1,200  Level FAA TRACON SMA TRACON (SMA)
12:18PM 42.1908 -83.3586 197° South 170 196 2,000 2,040 Climbing FAA TRACON SMA TRACON (SMA)
12:19PM 42.1717 -83.3661 196° South 203 234 2,600 2,040 Climbing FAA TRACON SMA TRACON (SMA)
12:19PM 42.1544 -83.3728 196° South 216 249 3,400 2,700 Climbing FAA TRACON SMA TRACON (SMA)
12:19PM 42.1325 -83.3806 195° South 226 260 4,400 2,760 Climbing FAA TRACON SMA TRACON (SMA)
12:20PM 42.1150 -83.3875 196° South 233 268 5,200 2,880 Climbing FAA TRACON SMA TRACON (SMA)
12:20PM 42.0917 -83.3964 196° South 238 274 6,300 3,120 Climbing FAA TRACON SMA TRACON (SMA)
12:20PM 42.0689 -83.3972 182° South 240 276 7,300 2,520 Climbing FAA TRACON SMA TRACON (SMA)
12:21PM 41.9411 -83.2952 180° South  Level Estimated
12:21PM 42.0494 -83.3931 171° South 250 288 8,000  Level FAA TRACON SMA TRACON (SMA)
12:21PM 42.0275 -83.3908 176° South 253 291 8,700 2,400 Climbing FAA TRACON SMA TRACON (SMA)
12:21PM 41.9997 -83.3875 175° South 260 299 9,600 2,400 Climbing FAA TRACON SMA TRACON (SMA)
12:22PM 41.8514 -83.3195 191° South  Level FlightAware Approximate
12:22PM 41.9769 -83.3844 174° South 265 305 10,300  Level FAA TRACON SMA TRACON (SMA)
12:22PM 41.9533 -83.3811 174° South 272 313 10,900 2,100 Climbing FAA TRACON SMA TRACON (SMA)
12:22PM 41.9225 -83.3769 174° South 285 328 11,700 1,920 Climbing FAA TRACON SMA TRACON (SMA)
12:23PM 41.7612 -83.2981 180° South  Level Estimated
12:23PM 41.8972 -83.3731 173° South 295 339 12,200  Level FAA TRACON SMA TRACON (SMA)
12:23PM 41.8644 -83.3689 175° South 306 352 12,800 1,620 Climbing FAA TRACON SMA TRACON (SMA)
12:23PM 41.8375 -83.3653 174° South 313 360 13,300 1,500 Climbing FAA TRACON SMA TRACON (SMA)
12:24PM 41.8100 -83.3611 174° South 319 367 13,800 1,560 Climbing FAA TRACON SMA TRACON (SMA)
12:24PM 41.7747 -83.3561 174° South 327 376 14,400 1,440 Climbing FAA TRACON SMA TRACON (SMA)
12:24PM 41.7461 -83.3525 175° South 333 383 14,800 1,320 Climbing FAA TRACON SMA TRACON (SMA)
12:25PM 41.7172 -83.3486 174° South 337 388 15,300 1,620 Climbing FAA TRACON SMA TRACON (SMA)
12:25PM 41.6808 -83.3444 175° South 341 392 15,900 1,020 Climbing FAA TRACON SMA TRACON (SMA)
12:25PM 41.6511 -83.3519 191° South 356 410 16,000 120 Climbing FAA TRACON SMA TRACON (SMA)
12:26PM 41.6219 -83.3658 200° South 367 422 16,000  Level FAA TRACON SMA TRACON (SMA)
12:26PM 41.5928 -83.3792 199° South 361 415 16,000  Level FAA TRACON SMA TRACON (SMA)
12:26PM 41.5564 -83.3958 199° South 360 414 16,000  Level FAA TRACON SMA TRACON (SMA)
12:27PM 41.5272 -83.4092 199° South 360 414 16,000  Level FAA TRACON SMA TRACON (SMA)
12:27PM 41.4981 -83.4228 199° South 361 415 16,000  Level FAA TRACON SMA TRACON (SMA)
12:27PM 41.4686 -83.4364 199° South 361 415 16,000  Level FAA TRACON SMA TRACON (SMA)
12:28PM 41.4350 -83.4517 199° South 360 414 16,000  Level FAA TRACON SMA TRACON (SMA)
12:28PM 41.3981 -83.4678 198° South 360 414 16,000  Level FAA TRACON SMA TRACON (SMA)
12:28PM 41.3689 -83.4811 199° South 361 415 16,000  Level FAA TRACON SMA TRACON (SMA)
12:29PM 41.3397 -83.4947 199° South 361 415 16,000  Level FAA TRACON SMA TRACON (SMA)
12:29PM 41.3397 -83.4947 323° Northwest 361 415 16,000  Level FAA TRACON SMA TRACON (SMA)
12:31PM 41.1661 -83.5758 199° South 369 425 16,000  Level Cleveland Center
12:32PM 41.0711 -83.6183 199° South 369 425 16,000  Level Cleveland Center
12:33PM 40.9761 -83.6664 201° Southwest 369 425 16,000  Level Cleveland Center
12:34PM 40.8756 -83.6781 185° South 368 423 16,000 -420 Level Cleveland Center
12:35PM 40.7897 -83.6136 150° Southeast 344 396 15,200 -1,500 Descending Cleveland Center
12:36PM 40.7106 -83.5389 144° Southeast 344 396 13,100 -1,800 Descending Cleveland Center
12:37PM 40.5692 -83.4161 147° Southeast 326 375 10,000 -1,080 Descending Indianapolis Center
12:38PM 40.4931 -83.3500 147° Southeast 324 373 10,000 -480 Level Indianapolis Center
12:40PM 40.4158 -83.3392 174° South 278 320 9,100 -1,500 Descending Indianapolis Center
12:41PM 40.3311 -83.3283 174° South 261 300 7,000 -1,380 Descending Indianapolis Center
12:42PM 40.2467 -83.3150 173° South 249 287 6,000 -540 Descending Indianapolis Center
12:43PM 40.1825 -83.3047 173° South 234 269 5,900 -600 Descending Indianapolis Center
12:44PM 40.1311 -83.2847 163° South 238 274 4,900 -1,020 Descending Indianapolis Center
12:45PM 40.0667 -83.2597 163° South 237 273 4,000 -480 Descending Indianapolis Center
12:46PM 40.0261 -83.1972 130° Southeast 234 269 4,000  Level Indianapolis Center
12:47PM 40.0128 -83.1133 102° East 242 278 4,000  Level Indianapolis Center